PWSweather.com
Personal Weather Stations
Station Observations
REUBENS
Camas Prairie, Reubens, ID

Camas PrairieReubens, ID

Lat: 46.35417, Lon: -116.53167

Elevation: 3480

Station Type: Davis VantagePro 2

http://www.theobrienranch.com/wx/wx.htm

High Low Average
Temperature 67.6°F19.8°C 48.3°F9.1°C 58.1°F14.5°C
Dew Point 56.1°F13.4°C 43.5°F6.4°C 50.0°F10.0°C
Winds 9.3 mph 15.0 kmh Calm Calm 3.0 mph SW4.8 kmh SW
Wind Gusts 13.0 mph20.9 kmh -- 4.0 mph6.4 kmh
Humidity 85% 62% 75%
Pressure 29.85 in1010.8 mb 29.72 in1006.4 mb -
Precipitation 0.17 in4.3 mm - -
Hour Temp Dew Point Humidity Winds Wind Gusts Pressure Precip Precip Rate Daily Precip Total
12:00 AM 54.2°F12.3°C 46.1°F7.8°C 74% 2.8 mph W4.5 kmh W 3.0 mph4.8 kmh 29.79 in1008.8 mb - 0.00 in0.0 mm 0.00 in0.0 mm
12:30 AM 54.7°F12.6°C 46.6°F8.1°C 74% 5.6 mph W9.0 kmh W 7.0 mph11.3 kmh 29.79 in1008.8 mb - 0.00 in0.0 mm 0.00 in0.0 mm
01:00 AM 53.4°F11.9°C 46.0°F7.8°C 76% 4.3 mph W6.9 kmh W 6.0 mph9.7 kmh 29.78 in1008.5 mb - 0.00 in0.0 mm 0.00 in0.0 mm
01:30 AM 53.7°F12.1°C 46.3°F7.9°C 76% 5.9 mph W9.5 kmh W 7.0 mph11.3 kmh 29.77 in1008.1 mb - 0.00 in0.0 mm 0.00 in0.0 mm
02:00 AM 53.1°F11.7°C 46.1°F7.8°C 77% 4.3 mph W6.9 kmh W 5.0 mph8.0 kmh 29.78 in1008.5 mb - 0.00 in0.0 mm 0.00 in0.0 mm
02:30 AM 49.3°F9.6°C 44.0°F6.7°C 82% 2.6 mph W4.2 kmh W 4.0 mph6.4 kmh 29.80 in1009.1 mb - 0.00 in0.0 mm 0.00 in0.0 mm
03:00 AM 49.1°F9.5°C 44.2°F6.8°C 83% 4.7 mph W7.6 kmh W 5.0 mph8.0 kmh 29.82 in1009.8 mb - 0.00 in0.0 mm 0.00 in0.0 mm
03:30 AM 49.5°F9.7°C 44.6°F7.0°C 83% 3.0 mph W4.8 kmh W 4.0 mph6.4 kmh 29.81 in1009.5 mb - 0.00 in0.0 mm 0.00 in0.0 mm
04:00 AM 49.1°F9.5°C 44.8°F7.1°C 85% Calm Calm -- 29.80 in1009.1 mb - 0.00 in0.0 mm 0.00 in0.0 mm
04:30 AM 49.2°F9.6°C 44.2°F6.8°C 83% 0.1 mph W0.2 kmh W -- 29.81 in1009.5 mb - 0.00 in0.0 mm 0.00 in0.0 mm
05:00 AM 48.3°F9.1°C 44.0°F6.7°C 85% 1.9 mph W3.1 kmh W 2.0 mph3.2 kmh 29.82 in1009.8 mb - 0.00 in0.0 mm 0.00 in0.0 mm
05:30 AM 48.4°F9.1°C 43.5°F6.4°C 83% 2.1 mph W3.4 kmh W 3.0 mph4.8 kmh 29.82 in1009.8 mb - 0.00 in0.0 mm 0.00 in0.0 mm
06:00 AM 48.7°F9.3°C 43.8°F6.6°C 83% Calm Calm -- 29.84 in1010.5 mb - 0.00 in0.0 mm 0.00 in0.0 mm
06:30 AM 49.1°F9.5°C 44.8°F7.1°C 85% 2.7 mph W4.3 kmh W 4.0 mph6.4 kmh 29.85 in1010.8 mb - 0.00 in0.0 mm 0.00 in0.0 mm
07:00 AM 52.6°F11.4°C 48.3°F9.1°C 85% 1.7 mph W2.7 kmh W 2.0 mph3.2 kmh 29.84 in1010.5 mb - 0.00 in0.0 mm 0.00 in0.0 mm
07:30 AM 56.3°F13.5°C 48.8°F9.3°C 76% 3.8 mph S6.1 kmh S 5.0 mph8.0 kmh 29.82 in1009.8 mb - 0.00 in0.0 mm 0.00 in0.0 mm
08:00 AM 59.6°F15.3°C 50.2°F10.1°C 71% 1.7 mph S2.7 kmh S 4.0 mph6.4 kmh 29.81 in1009.5 mb - 0.00 in0.0 mm 0.00 in0.0 mm
08:30 AM 61.3°F16.3°C 50.7°F10.4°C 68% 3.3 mph ESE5.3 kmh ESE 4.0 mph6.4 kmh 29.80 in1009.1 mb - 0.00 in0.0 mm 0.00 in0.0 mm
09:00 AM 62.8°F17.1°C 49.6°F9.8°C 62% 0.1 mph E0.2 kmh E 1.0 mph1.6 kmh 29.81 in1009.5 mb - 0.00 in0.0 mm 0.00 in0.0 mm
09:30 AM 62.6°F17.0°C 50.7°F10.4°C 65% 7.7 mph ESE12.4 kmh ESE 9.0 mph14.5 kmh 29.81 in1009.5 mb - 0.00 in0.0 mm 0.00 in0.0 mm
10:00 AM 63.5°F17.5°C 51.1°F10.6°C 64% 4.5 mph E7.2 kmh E 6.0 mph9.7 kmh 29.81 in1009.5 mb - 0.00 in0.0 mm 0.00 in0.0 mm
10:30 AM 64.5°F18.1°C 51.6°F10.9°C 63% 5.7 mph E9.2 kmh E 9.0 mph14.5 kmh 29.80 in1009.1 mb - 0.00 in0.0 mm 0.00 in0.0 mm
11:00 AM 65.7°F18.7°C 53.2°F11.8°C 64% 6.8 mph NE10.9 kmh NE 13.0 mph20.9 kmh 29.79 in1008.8 mb - 0.00 in0.0 mm 0.00 in0.0 mm
11:30 AM 66.9°F19.4°C 53.4°F11.9°C 62% 3.4 mph NE5.5 kmh NE 5.0 mph8.0 kmh 29.79 in1008.8 mb - 0.00 in0.0 mm 0.00 in0.0 mm
12:00 PM 67.0°F19.4°C 53.6°F12.0°C 62% 1.6 mph NNE2.6 kmh NNE 5.0 mph8.0 kmh 29.78 in1008.5 mb - 0.00 in0.0 mm 0.00 in0.0 mm
12:30 PM 64.8°F18.2°C 51.5°F10.8°C 62% 4.5 mph NE7.2 kmh NE 10.0 mph16.1 kmh 29.79 in1008.8 mb - 0.00 in0.0 mm 0.00 in0.0 mm
01:00 PM 60.1°F15.6°C 51.4°F10.8°C 73% 9.3 mph WSW15.0 kmh WSW 11.0 mph17.7 kmh 29.81 in1009.5 mb - 0.00 in0.0 mm 0.00 in0.0 mm
01:30 PM 58.6°F14.8°C 49.9°F9.9°C 73% 8.2 mph SW13.2 kmh SW 11.0 mph17.7 kmh 29.81 in1009.5 mb - 0.00 in0.0 mm 0.00 in0.0 mm
02:00 PM 55.6°F13.1°C 48.5°F9.2°C 77% 4.2 mph WSW6.8 kmh WSW 5.0 mph8.0 kmh 29.85 in1010.8 mb - 0.12 in3.0 mm 0.12 in3.0 mm
02:30 PM 56.4°F13.6°C 50.3°F10.2°C 80% 2.8 mph WSW4.5 kmh WSW 4.0 mph6.4 kmh 29.82 in1009.8 mb - 0.06 in1.5 mm 0.17 in4.3 mm
03:00 PM 60.3°F15.7°C 51.6°F10.9°C 73% 4.0 mph SW6.4 kmh SW 5.0 mph8.0 kmh 29.80 in1009.1 mb - 0.00 in0.0 mm 0.17 in4.3 mm
03:30 PM 63.4°F17.4°C 56.1°F13.4°C 77% Calm Calm -- 29.77 in1008.1 mb - 0.00 in0.0 mm 0.17 in4.3 mm
04:00 PM 67.3°F19.6°C 55.5°F13.1°C 66% 2.1 mph WNW3.4 kmh WNW 4.0 mph6.4 kmh 29.77 in1008.1 mb - 0.00 in0.0 mm 0.17 in4.3 mm
04:30 PM 67.6°F19.8°C 55.0°F12.8°C 64% 2.2 mph NW3.5 kmh NW 5.0 mph8.0 kmh 29.76 in1007.8 mb - 0.00 in0.0 mm 0.17 in4.3 mm
05:00 PM 66.5°F19.2°C 54.0°F12.2°C 64% 3.4 mph NW5.5 kmh NW 6.0 mph9.7 kmh 29.75 in1007.5 mb - 0.00 in0.0 mm 0.17 in4.3 mm
05:30 PM 66.0°F18.9°C 55.6°F13.1°C 69% 1.0 mph NW1.6 kmh NW 3.0 mph4.8 kmh 29.76 in1007.8 mb - 0.00 in0.0 mm 0.17 in4.3 mm
06:00 PM 66.8°F19.3°C 53.8°F12.1°C 63% 2.2 mph NW3.5 kmh NW 3.0 mph4.8 kmh 29.74 in1007.1 mb - 0.00 in0.0 mm 0.17 in4.3 mm
06:30 PM 62.1°F16.7°C 53.3°F11.8°C 73% 3.2 mph NW5.1 kmh NW 4.0 mph6.4 kmh 29.74 in1007.1 mb - 0.00 in0.0 mm 0.17 in4.3 mm
07:00 PM 61.3°F16.3°C 54.4°F12.4°C 78% Calm Calm -- 29.72 in1006.4 mb - 0.00 in0.0 mm 0.17 in4.3 mm
07:30 PM 61.1°F16.2°C 51.6°F10.9°C 71% 2.7 mph ESE4.3 kmh ESE 4.0 mph6.4 kmh 29.73 in1006.8 mb - 0.00 in0.0 mm 0.17 in4.3 mm
08:00 PM 59.9°F15.5°C 51.9°F11.1°C 75% 1.4 mph SE2.3 kmh SE 3.0 mph4.8 kmh 29.73 in1006.8 mb - 0.00 in0.0 mm 0.17 in4.3 mm
08:30 PM 58.2°F14.6°C 52.1°F11.2°C 80% Calm Calm -- 29.74 in1007.1 mb - 0.00 in0.0 mm 0.17 in4.3 mm
09:00 PM 57.3°F14.1°C 51.5°F10.8°C 81% 1.6 mph SE2.6 kmh SE 2.0 mph3.2 kmh 29.75 in1007.5 mb - 0.00 in0.0 mm 0.17 in4.3 mm
09:30 PM 56.8°F13.8°C 51.4°F10.8°C 82% 6.1 mph SSW9.8 kmh SSW 7.0 mph11.3 kmh 29.75 in1007.5 mb - 0.00 in0.0 mm 0.17 in4.3 mm
10:00 PM 56.3°F13.5°C 51.5°F10.8°C 84% 3.9 mph SSW6.3 kmh SSW 4.0 mph6.4 kmh 29.74 in1007.1 mb - 0.00 in0.0 mm 0.17 in4.3 mm
10:30 PM 57.6°F14.2°C 50.8°F10.4°C 78% Calm Calm -- 29.74 in1007.1 mb - 0.00 in0.0 mm 0.17 in4.3 mm
11:00 PM 57.0°F13.9°C 50.2°F10.1°C 78% 2.6 mph SSW4.2 kmh SSW 3.0 mph4.8 kmh 29.74 in1007.1 mb - 0.00 in0.0 mm 0.17 in4.3 mm
11:30 PM 55.8°F13.2°C 50.7°F10.4°C 83% 2.8 mph SSW4.5 kmh SSW 4.0 mph6.4 kmh 29.75 in1007.5 mb - 0.00 in0.0 mm 0.17 in4.3 mm